sensor_id;sensor_type;location;lat;lon;timestamp;pressure;altitude;pressure_sealevel;temperature;humidity
55418;BME280;41287;47.554;7.844;2022-11-11T00:00:24;99336.38;;;19.50;54.65
55418;BME280;41287;47.554;7.844;2022-11-11T00:02:49;99337.97;;;19.51;54.64
55418;BME280;41287;47.554;7.844;2022-11-11T00:05:15;99341.00;;;19.49;54.51
55418;BME280;41287;47.554;7.844;2022-11-11T00:07:43;99341.81;;;19.50;54.65
55418;BME280;41287;47.554;7.844;2022-11-11T00:10:09;99341.00;;;19.49;54.60
55418;BME280;41287;47.554;7.844;2022-11-11T00:12:34;99340.19;;;19.49;54.58
55418;BME280;41287;47.554;7.844;2022-11-11T00:15:00;99341.00;;;19.49;54.51
55418;BME280;41287;47.554;7.844;2022-11-11T00:17:28;99339.38;;;19.48;54.47
55418;BME280;41287;47.554;7.844;2022-11-11T00:20:12;99333.94;;;19.48;54.51
55418;BME280;41287;47.554;7.844;2022-11-11T00:22:58;99335.56;;;19.49;54.73
55418;BME280;41287;47.554;7.844;2022-11-11T00:25:42;99334.75;;;19.49;54.63
55418;BME280;41287;47.554;7.844;2022-11-11T00:28:07;99344.81;;;19.48;54.65
55418;BME280;41287;47.554;7.844;2022-11-11T00:30:33;99335.88;;;19.48;54.71
55418;BME280;41287;47.554;7.844;2022-11-11T00:32:58;99342.09;;;19.48;54.75
55418;BME280;41287;47.554;7.844;2022-11-11T00:35:23;99338.59;;;19.48;54.64
55418;BME280;41287;47.554;7.844;2022-11-11T00:38:09;99342.91;;;19.49;54.68
55418;BME280;41287;47.554;7.844;2022-11-11T00:40:35;99338.88;;;19.46;54.74
55418;BME280;41287;47.554;7.844;2022-11-11T00:43:00;99334.25;;;19.47;54.74
55418;BME280;41287;47.554;7.844;2022-11-11T00:45:26;99342.09;;;19.48;54.71
55418;BME280;41287;47.554;7.844;2022-11-11T00:47:51;99345.94;;;19.47;54.68
55418;BME280;41287;47.554;7.844;2022-11-11T00:50:35;99345.41;;;19.45;54.74
55418;BME280;41287;47.554;7.844;2022-11-11T00:53:23;99346.75;;;19.48;54.75
55418;BME280;41287;47.554;7.844;2022-11-11T00:55:49;99345.63;;;19.49;54.80
55418;BME280;41287;47.554;7.844;2022-11-11T00:58:15;99346.75;;;19.48;54.66
55418;BME280;41287;47.554;7.844;2022-11-11T01:00:41;99351.38;;;19.47;54.73
55418;BME280;41287;47.554;7.844;2022-11-11T01:03:07;99349.75;;;19.46;54.65
55418;BME280;41287;47.554;7.844;2022-11-11T01:05:32;99345.13;;;19.47;54.67
55418;BME280;41287;47.554;7.844;2022-11-11T01:07:58;99352.47;;;19.46;54.77
55418;BME280;41287;47.554;7.844;2022-11-11T01:10:23;99356.00;;;19.47;54.78
55418;BME280;41287;47.554;7.844;2022-11-11T01:13:13;99355.19;;;19.46;54.84
55418;BME280;41287;47.554;7.844;2022-11-11T01:15:41;99347.03;;;19.46;54.74
55418;BME280;41287;47.554;7.844;2022-11-11T01:18:09;99349.75;;;19.46;54.68
55418;BME280;41287;47.554;7.844;2022-11-11T01:20:35;99363.34;;;19.46;54.74
55418;BME280;41287;47.554;7.844;2022-11-11T01:23:03;99359.78;;;19.46;54.83
55418;BME280;41287;47.554;7.844;2022-11-11T01:25:31;99360.63;;;19.46;54.77
55418;BME280;41287;47.554;7.844;2022-11-11T01:27:56;99356.28;;;19.45;54.85
55418;BME280;41287;47.554;7.844;2022-11-11T01:30:23;99348.13;;;19.45;54.79
55418;BME280;41287;47.554;7.844;2022-11-11T01:32:50;99359.78;;;19.46;54.89
55418;BME280;41287;47.554;7.844;2022-11-11T01:35:16;99363.34;;;19.46;54.90
55418;BME280;41287;47.554;7.844;2022-11-11T01:37:41;99360.63;;;19.46;54.75
55418;BME280;41287;47.554;7.844;2022-11-11T01:40:07;99366.38;;;19.45;54.89
55418;BME280;41287;47.554;7.844;2022-11-11T01:48:40;99383.78;;;19.44;54.84
55418;BME280;41287;47.554;7.844;2022-11-11T01:54:37;99380.72;;;19.45;54.82
55418;BME280;41287;47.554;7.844;2022-11-11T01:57:43;99377.84;;;19.42;54.95
55418;BME280;41287;47.554;7.844;2022-11-11T02:00:13;99365.56;;;19.44;54.82
55418;BME280;41287;47.554;7.844;2022-11-11T02:02:42;99380.25;;;19.43;54.86
55418;BME280;41287;47.554;7.844;2022-11-11T02:05:12;99373.72;;;19.44;54.91
55418;BME280;41287;47.554;7.844;2022-11-11T02:07:59;99379.16;;;19.44;54.99
55418;BME280;41287;47.554;7.844;2022-11-11T02:10:28;99372.09;;;19.43;55.17
55418;BME280;41287;47.554;7.844;2022-11-11T02:12:54;99380.25;;;19.43;54.91
55418;BME280;41287;47.554;7.844;2022-11-11T02:15:39;99384.88;;;19.43;55.07
55418;BME280;41287;47.554;7.844;2022-11-11T02:18:05;99396.56;;;19.43;55.06
55418;BME280;41287;47.554;7.844;2022-11-11T02:20:34;99401.19;;;19.43;54.96
55418;BME280;41287;47.554;7.844;2022-11-11T02:25:48;99399.28;;;19.43;55.04
55418;BME280;41287;47.554;7.844;2022-11-11T02:28:16;99397.66;;;19.42;55.08
55418;BME280;41287;47.554;7.844;2022-11-11T02:30:42;99399.28;;;19.43;55.14
55418;BME280;41287;47.554;7.844;2022-11-11T02:33:07;99398.47;;;19.43;55.16
55418;BME280;41287;47.554;7.844;2022-11-11T02:35:38;99405.81;;;19.42;55.15
55418;BME280;41287;47.554;7.844;2022-11-11T02:38:06;99410.16;;;19.43;55.07
55418;BME280;41287;47.554;7.844;2022-11-11T02:40:43;99406.63;;;19.43;55.05
55418;BME280;41287;47.554;7.844;2022-11-11T02:43:29;99420.22;;;19.43;55.06
55418;BME280;41287;47.554;7.844;2022-11-11T02:45:54;99422.13;;;19.42;55.23
55418;BME280;41287;47.554;7.844;2022-11-11T02:48:20;99418.63;;;19.42;55.18
55418;BME280;41287;47.554;7.844;2022-11-11T02:50:46;99414.78;;;19.43;55.12
55418;BME280;41287;47.554;7.844;2022-11-11T02:53:11;99414.78;;;19.43;55.22
55418;BME280;41287;47.554;7.844;2022-11-11T02:55:37;99424.84;;;19.42;55.08
55418;BME280;41287;47.554;7.844;2022-11-11T02:58:02;99422.13;;;19.42;55.08
55418;BME280;41287;47.554;7.844;2022-11-11T03:00:28;99424.84;;;19.42;55.13
55418;BME280;41287;47.554;7.844;2022-11-11T03:02:53;99428.69;;;19.41;55.23
55418;BME280;41287;47.554;7.844;2022-11-11T03:05:18;99428.69;;;19.41;55.26
55418;BME280;41287;47.554;7.844;2022-11-11T03:07:44;99429.47;;;19.42;55.03
55418;BME280;41287;47.554;7.844;2022-11-11T03:10:09;99437.63;;;19.42;55.30
55418;BME280;41287;47.554;7.844;2022-11-11T03:12:35;99438.44;;;19.42;55.23
55418;BME280;41287;47.554;7.844;2022-11-11T03:15:00;99444.69;;;19.43;55.46
55418;BME280;41287;47.554;7.844;2022-11-11T03:17:25;99453.94;;;19.42;55.18
55418;BME280;41287;47.554;7.844;2022-11-11T03:20:10;99455.06;;;19.41;55.37
55418;BME280;41287;47.554;7.844;2022-11-11T03:22:59;99453.13;;;19.41;55.35
55418;BME280;41287;47.554;7.844;2022-11-11T03:25:24;99440.34;;;19.42;55.52
55418;BME280;41287;47.554;7.844;2022-11-11T03:28:11;99449.63;;;19.41;55.34
55418;BME280;41287;47.554;7.844;2022-11-11T03:30:40;99448.81;;;19.40;55.45
55418;BME280;41287;47.554;7.844;2022-11-11T03:33:08;99448.81;;;19.40;55.44
55418;BME280;41287;47.554;7.844;2022-11-11T03:35:36;99455.06;;;19.41;55.45
55418;BME280;41287;47.554;7.844;2022-11-11T03:38:03;99448.00;;;19.40;55.46
55418;BME280;41287;47.554;7.844;2022-11-11T03:40:47;99451.53;;;19.40;55.41
55418;BME280;41287;47.554;7.844;2022-11-11T03:43:15;99459.69;;;19.40;55.46
55418;BME280;41287;47.554;7.844;2022-11-11T03:45:43;99462.41;;;19.40;55.59
55418;BME280;41287;47.554;7.844;2022-11-11T03:48:11;99460.50;;;19.41;55.39
55418;BME280;41287;47.554;7.844;2022-11-11T03:50:36;99454.53;;;19.39;55.46
55418;BME280;41287;47.554;7.844;2022-11-11T03:53:02;99453.44;;;19.40;55.46
55418;BME280;41287;47.554;7.844;2022-11-11T03:55:28;99458.06;;;19.39;55.46
55418;BME280;41287;47.554;7.844;2022-11-11T03:57:53;99458.88;;;19.40;55.58
55418;BME280;41287;47.554;7.844;2022-11-11T04:00:24;99461.91;;;19.38;55.58
55418;BME280;41287;47.554;7.844;2022-11-11T04:02:50;99464.31;;;19.40;55.50
55418;BME280;41287;47.554;7.844;2022-11-11T04:05:34;99466.22;;;19.39;55.55
55418;BME280;41287;47.554;7.844;2022-11-11T04:08:19;99469.75;;;19.40;55.56
55418;BME280;41287;47.554;7.844;2022-11-11T04:11:10;99470.03;;;19.38;55.57
55418;BME280;41287;47.554;7.844;2022-11-11T04:13:38;99473.56;;;19.39;55.58
55418;BME280;41287;47.554;7.844;2022-11-11T04:16:22;99474.38;;;19.39;55.58
55418;BME280;41287;47.554;7.844;2022-11-11T04:18:48;99468.94;;;19.39;55.59
55418;BME280;41287;47.554;7.844;2022-11-11T04:21:32;99470.03;;;19.38;55.70
55418;BME280;41287;47.554;7.844;2022-11-11T04:24:11;99466.22;;;19.39;55.68
55418;BME280;41287;47.554;7.844;2022-11-11T04:26:57;99476.28;;;19.39;55.54
55418;BME280;41287;47.554;7.844;2022-11-11T04:29:23;99467.31;;;19.38;55.61
55418;BME280;41287;47.554;7.844;2022-11-11T04:31:57;99470.84;;;19.39;55.71
55418;BME280;41287;47.554;7.844;2022-11-11T04:34:47;99472.75;;;19.38;55.57
55418;BME280;41287;47.554;7.844;2022-11-11T04:37:13;99461.13;;;19.38;55.69
55418;BME280;41287;47.554;7.844;2022-11-11T04:39:38;99460.31;;;19.37;55.70
55418;BME280;41287;47.554;7.844;2022-11-11T04:42:23;99453.75;;;19.38;55.72
55418;BME280;41287;47.554;7.844;2022-11-11T04:44:48;99459.97;;;19.39;55.54
55418;BME280;41287;47.554;7.844;2022-11-11T04:47:34;99452.16;;;19.37;55.82
55418;BME280;41287;47.554;7.844;2022-11-11T04:50:00;99457.59;;;19.37;55.68
55418;BME280;41287;47.554;7.844;2022-11-11T04:52:25;99459.50;;;19.37;55.79
55418;BME280;41287;47.554;7.844;2022-11-11T04:54:51;99466.56;;;19.38;55.68
55418;BME280;41287;47.554;7.844;2022-11-11T04:57:41;99454.06;;;19.37;55.75
55418;BME280;41287;47.554;7.844;2022-11-11T05:00:10;99454.88;;;19.37;55.78
55418;BME280;41287;47.554;7.844;2022-11-11T05:02:36;99449.44;;;19.37;55.75
55418;BME280;41287;47.554;7.844;2022-11-11T05:05:37;99446.72;;;19.37;55.71
55418;BME280;41287;47.554;7.844;2022-11-11T05:08:21;99449.44;;;19.37;55.77
55418;BME280;41287;47.554;7.844;2022-11-11T05:11:07;99451.34;;;19.37;55.98
55418;BME280;41287;47.554;7.844;2022-11-11T05:13:32;99451.03;;;19.38;55.99
55418;BME280;41287;47.554;7.844;2022-11-11T05:16:19;99445.91;;;19.37;56.01
55418;BME280;41287;47.554;7.844;2022-11-11T05:19:03;99444.00;;;19.37;55.87
55418;BME280;41287;47.554;7.844;2022-11-11T05:21:48;99451.34;;;19.37;55.97
55418;BME280;41287;47.554;7.844;2022-11-11T05:24:15;99453.25;;;19.36;55.92
55418;BME280;41287;47.554;7.844;2022-11-11T05:26:59;99449.44;;;19.37;56.14
55418;BME280;41287;47.554;7.844;2022-11-11T05:29:25;99442.09;;;19.38;56.08
55418;BME280;41287;47.554;7.844;2022-11-11T05:31:50;99446.72;;;19.37;56.12
55418;BME280;41287;47.554;7.844;2022-11-11T05:34:15;99455.97;;;19.36;55.97
55418;BME280;41287;47.554;7.844;2022-11-11T05:36:41;99453.25;;;19.36;55.91
55418;BME280;41287;47.554;7.844;2022-11-11T05:39:08;99447.81;;;19.36;56.22
55418;BME280;41287;47.554;7.844;2022-11-11T05:41:34;99441.59;;;19.36;56.08
55418;BME280;41287;47.554;7.844;2022-11-11T05:43:59;99448.94;;;19.35;56.07
55418;BME280;41287;47.554;7.844;2022-11-11T05:46:24;99447.03;;;19.36;55.98
55418;BME280;41287;47.554;7.844;2022-11-11T05:48:49;99457.88;;;19.36;56.12
55418;BME280;41287;47.554;7.844;2022-11-11T05:51:33;99452.44;;;19.36;56.43
55418;BME280;41287;47.554;7.844;2022-11-11T05:53:59;99453.25;;;19.36;56.53
55418;BME280;41287;47.554;7.844;2022-11-11T05:56:24;99457.09;;;19.35;56.72
55418;BME280;41287;47.554;7.844;2022-11-11T05:58:50;99463.31;;;19.36;56.84
55418;BME280;41287;47.554;7.844;2022-11-11T06:01:15;99475.31;;;19.34;57.02
55418;BME280;41287;47.554;7.844;2022-11-11T06:03:42;99473.91;;;19.37;57.01
55418;BME280;41287;47.554;7.844;2022-11-11T06:06:10;99485.06;;;19.36;57.06
55418;BME280;41287;47.554;7.844;2022-11-11T06:08:35;99481.25;;;19.37;57.01
55418;BME280;41287;47.554;7.844;2022-11-11T06:11:00;99491.31;;;19.36;57.18
55418;BME280;41287;47.554;7.844;2022-11-11T06:13:28;99485.88;;;19.36;56.98
55418;BME280;41287;47.554;7.844;2022-11-11T06:15:55;99481.53;;;19.35;57.08
55418;BME280;41287;47.554;7.844;2022-11-11T06:18:21;99491.63;;;19.34;56.95
55418;BME280;41287;47.554;7.844;2022-11-11T06:20:57;99495.44;;;19.33;56.68
55418;BME280;41287;47.554;7.844;2022-11-11T06:23:24;99497.84;;;19.35;56.48
55418;BME280;41287;47.554;7.844;2022-11-11T06:25:50;99503.59;;;19.33;56.31
55418;BME280;41287;47.554;7.844;2022-11-11T06:28:36;99509.81;;;19.34;56.31
55418;BME280;41287;47.554;7.844;2022-11-11T06:31:02;99520.69;;;19.34;56.37
55418;BME280;41287;47.554;7.844;2022-11-11T06:33:28;99517.97;;;19.34;56.48
55418;BME280;41287;47.554;7.844;2022-11-11T06:35:53;99525.03;;;19.35;56.23
55418;BME280;41287;47.554;7.844;2022-11-11T06:38:19;99523.41;;;19.34;56.38
55418;BME280;41287;47.554;7.844;2022-11-11T06:40:44;99537.00;;;19.34;56.38
55418;BME280;41287;47.554;7.844;2022-11-11T06:43:10;99535.41;;;19.33;56.23
55418;BME280;41287;47.554;7.844;2022-11-11T06:45:35;99541.63;;;19.33;56.45
55418;BME280;41287;47.554;7.844;2022-11-11T06:48:02;99548.19;;;19.32;56.34
55418;BME280;41287;47.554;7.844;2022-11-11T06:50:27;99555.22;;;19.33;56.29
55418;BME280;41287;47.554;7.844;2022-11-11T06:52:54;99551.69;;;19.33;56.39
55418;BME280;41287;47.554;7.844;2022-11-11T06:55:21;99551.69;;;19.33;56.35
55418;BME280;41287;47.554;7.844;2022-11-11T06:57:48;99554.41;;;19.33;56.32
55418;BME280;41287;47.554;7.844;2022-11-11T07:00:14;99554.41;;;19.33;56.37
55418;BME280;41287;47.554;7.844;2022-11-11T07:02:39;99559.56;;;19.34;56.44
55418;BME280;41287;47.554;7.844;2022-11-11T07:05:05;99556.03;;;19.34;56.45
55418;BME280;41287;47.554;7.844;2022-11-11T07:07:32;99558.75;;;19.34;56.58
55418;BME280;41287;47.554;7.844;2022-11-11T07:09:59;99561.47;;;19.34;57.03
55418;BME280;41287;47.554;7.844;2022-11-11T07:12:25;99558.75;;;19.34;56.67
55418;BME280;41287;47.554;7.844;2022-11-11T07:14:50;99573.97;;;19.35;56.83
55418;BME280;41287;47.554;7.844;2022-11-11T07:17:16;99576.66;;;19.35;56.76
55418;BME280;41287;47.554;7.844;2022-11-11T07:19:41;99577.47;;;19.36;56.64
55418;BME280;41287;47.554;7.844;2022-11-11T07:22:07;99580.19;;;19.36;56.74
55418;BME280;41287;47.554;7.844;2022-11-11T07:24:32;99575.06;;;19.34;56.87
55418;BME280;41287;47.554;7.844;2022-11-11T07:26:57;99573.44;;;19.33;56.79
55418;BME280;41287;47.554;7.844;2022-11-11T07:29:25;99580.50;;;19.34;56.82
55418;BME280;41287;47.554;7.844;2022-11-11T07:31:52;99589.47;;;19.34;56.72
55418;BME280;41287;47.554;7.844;2022-11-11T07:34:19;99584.03;;;19.34;56.81
55418;BME280;41287;47.554;7.844;2022-11-11T07:36:44;99586.75;;;19.34;56.79
55418;BME280;41287;47.554;7.844;2022-11-11T07:39:10;99592.19;;;19.34;56.75
55418;BME280;41287;47.554;7.844;2022-11-11T07:41:35;99597.59;;;19.34;56.52
55418;BME280;41287;47.554;7.844;2022-11-11T07:44:00;99604.16;;;19.33;56.71
55418;BME280;41287;47.554;7.844;2022-11-11T07:46:26;99604.97;;;19.34;56.74
55418;BME280;41287;47.554;7.844;2022-11-11T07:48:52;99612.00;;;19.35;56.77
55418;BME280;41287;47.554;7.844;2022-11-11T07:51:17;99612.31;;;19.33;56.83
55418;BME280;41287;47.554;7.844;2022-11-11T07:53:42;99611.50;;;19.33;56.90
55418;BME280;41287;47.554;7.844;2022-11-11T07:56:08;99609.88;;;19.32;56.77
55418;BME280;41287;47.554;7.844;2022-11-11T07:58:33;99607.69;;;19.34;56.80
55418;BME280;41287;47.554;7.844;2022-11-11T08:00:59;99610.41;;;19.34;56.71
55418;BME280;41287;47.554;7.844;2022-11-11T08:03:26;99597.91;;;19.33;56.82
55418;BME280;41287;47.554;7.844;2022-11-11T08:05:54;99604.16;;;19.33;56.85
55418;BME280;41287;47.554;7.844;2022-11-11T08:08:20;99607.69;;;19.34;56.80
55418;BME280;41287;47.554;7.844;2022-11-11T08:10:49;99596.81;;;19.34;56.70
55418;BME280;41287;47.554;7.844;2022-11-11T08:13:14;99600.63;;;19.33;56.76
55418;BME280;41287;47.554;7.844;2022-11-11T08:15:58;99605.25;;;19.32;56.83
55418;BME280;41287;47.554;7.844;2022-11-11T08:18:23;99606.06;;;19.33;56.73
55418;BME280;41287;47.554;7.844;2022-11-11T08:20:49;99602.53;;;19.32;56.82
55418;BME280;41287;47.554;7.844;2022-11-11T08:23:16;99604.44;;;19.32;56.85
55418;BME280;41287;47.554;7.844;2022-11-11T08:25:46;99606.06;;;19.33;56.84
55418;BME280;41287;47.554;7.844;2022-11-11T08:28:11;99606.88;;;19.33;56.82
55418;BME280;41287;47.554;7.844;2022-11-11T08:30:37;99608.78;;;19.33;56.90
55418;BME280;41287;47.554;7.844;2022-11-11T08:33:04;99600.63;;;19.33;56.95
55418;BME280;41287;47.554;7.844;2022-11-11T08:35:31;99602.53;;;19.32;56.98
55418;BME280;41287;47.554;7.844;2022-11-11T08:38:01;99616.94;;;19.33;56.97
55418;BME280;41287;47.554;7.844;2022-11-11T08:40:27;99606.06;;;19.33;56.88
55418;BME280;41287;47.554;7.844;2022-11-11T08:42:57;99609.06;;;19.31;56.93
55418;BME280;41287;47.554;7.844;2022-11-11T08:45:24;99607.97;;;19.32;56.88
55418;BME280;41287;47.554;7.844;2022-11-11T08:47:49;99607.16;;;19.32;56.85
55418;BME280;41287;47.554;7.844;2022-11-11T08:50:15;99607.16;;;19.32;56.78
55418;BME280;41287;47.554;7.844;2022-11-11T08:52:48;99610.19;;;19.30;57.01
55418;BME280;41287;47.554;7.844;2022-11-11T08:55:14;99604.44;;;19.32;56.96
55418;BME280;41287;47.554;7.844;2022-11-11T08:57:39;99602.53;;;19.32;56.88
55418;BME280;41287;47.554;7.844;2022-11-11T09:00:05;99605.56;;;19.31;56.97
55418;BME280;41287;47.554;7.844;2022-11-11T09:02:31;99612.59;;;19.32;56.97
55418;BME280;41287;47.554;7.844;2022-11-11T09:04:57;99607.16;;;19.32;56.94
55418;BME280;41287;47.554;7.844;2022-11-11T09:07:22;99600.13;;;19.31;56.93
55418;BME280;41287;47.554;7.844;2022-11-11T09:09:48;99605.56;;;19.31;56.76
55418;BME280;41287;47.554;7.844;2022-11-11T09:12:13;99607.50;;;19.30;56.99
55418;BME280;41287;47.554;7.844;2022-11-11T09:14:38;99609.06;;;19.31;56.99
55418;BME280;41287;47.554;7.844;2022-11-11T09:17:05;99613.72;;;19.31;57.06
55418;BME280;41287;47.554;7.844;2022-11-11T09:19:31;99608.28;;;19.31;56.93
55418;BME280;41287;47.554;7.844;2022-11-11T09:21:56;99602.06;;;19.30;56.99
55418;BME280;41287;47.554;7.844;2022-11-11T09:24:21;99604.78;;;19.30;57.00
55418;BME280;41287;47.554;7.844;2022-11-11T09:26:48;99614.50;;;19.31;56.86
55418;BME280;41287;47.554;7.844;2022-11-11T09:29:14;99618.03;;;19.32;56.90
55418;BME280;41287;47.554;7.844;2022-11-11T09:31:39;99611.00;;;19.31;56.85
55418;BME280;41287;47.554;7.844;2022-11-11T09:34:05;99607.16;;;19.32;56.93
55418;BME280;41287;47.554;7.844;2022-11-11T09:36:31;99617.22;;;19.31;57.01
55418;BME280;41287;47.554;7.844;2022-11-11T09:38:57;99611.78;;;19.31;56.98
55418;BME280;41287;47.554;7.844;2022-11-11T09:42:02;99614.31;;;19.28;57.08
55418;BME280;41287;47.554;7.844;2022-11-11T09:47:54;99620.25;;;19.30;56.99
55418;BME280;41287;47.554;7.844;2022-11-11T09:50:28;99621.06;;;19.30;57.00
55418;BME280;41287;47.554;7.844;2022-11-11T09:58:12;99613.50;;;19.27;56.89
55418;BME280;41287;47.554;7.844;2022-11-11T10:00:42;99617.56;;;19.30;56.98
55418;BME280;41287;47.554;7.844;2022-11-11T10:03:16;99622.97;;;19.30;56.99
55418;BME280;41287;47.554;7.844;2022-11-11T10:06:02;99618.13;;;19.27;57.08
55418;BME280;41287;47.554;7.844;2022-11-11T10:11:00;99616.75;;;19.29;57.07
55418;BME280;41287;47.554;7.844;2022-11-11T10:13:32;99611.31;;;19.29;57.11
55418;BME280;41287;47.554;7.844;2022-11-11T10:21:43;99615.94;;;19.29;56.71
55418;BME280;41287;47.554;7.844;2022-11-11T10:24:20;99609.69;;;19.28;57.02
55418;BME280;41287;47.554;7.844;2022-11-11T10:26:47;99609.69;;;19.28;56.99
55418;BME280;41287;47.554;7.844;2022-11-11T10:29:20;99606.16;;;19.28;57.07
55418;BME280;41287;47.554;7.844;2022-11-11T10:31:55;99607.78;;;19.29;57.06
55418;BME280;41287;47.554;7.844;2022-11-11T10:34:25;99595.81;;;19.30;57.21
55418;BME280;41287;47.554;7.844;2022-11-11T10:36:54;99598.53;;;19.30;57.26
55418;BME280;41287;47.554;7.844;2022-11-11T10:39:41;99598.53;;;19.30;57.25
55418;BME280;41287;47.554;7.844;2022-11-11T10:42:16;99591.97;;;19.31;57.29
55418;BME280;41287;47.554;7.844;2022-11-11T10:44:42;99592.75;;;19.31;57.31
55418;BME280;41287;47.554;7.844;2022-11-11T10:47:41;99584.13;;;19.29;57.55
55418;BME280;41287;47.554;7.844;2022-11-11T10:50:20;99572.97;;;19.31;57.34
55418;BME280;41287;47.554;7.844;2022-11-11T10:58:46;99561.28;;;19.30;57.23
55418;BME280;41287;47.554;7.844;2022-11-11T11:01:18;99553.13;;;19.30;57.37
55418;BME280;41287;47.554;7.844;2022-11-11T11:03:47;99547.69;;;19.30;57.35
55418;BME280;41287;47.554;7.844;2022-11-11T11:06:23;99547.19;;;19.28;57.30
55418;BME280;41287;47.554;7.844;2022-11-11T11:08:53;99546.06;;;19.29;57.17
55418;BME280;41287;47.554;7.844;2022-11-11T11:11:34;99540.94;;;19.28;57.39
55418;BME280;41287;47.554;7.844;2022-11-11T11:14:06;99536.31;;;19.28;57.15
55418;BME280;41287;47.554;7.844;2022-11-11T11:16:36;99531.69;;;19.29;57.17
55418;BME280;41287;47.554;7.844;2022-11-11T11:19:19;99532.78;;;19.28;57.40
55418;BME280;41287;47.554;7.844;2022-11-11T11:21:50;99524.63;;;19.28;57.31
55418;BME280;41287;47.554;7.844;2022-11-11T11:26:56;99523.53;;;19.29;57.14
55418;BME280;41287;47.554;7.844;2022-11-11T11:29:32;99537.13;;;19.29;57.08
55418;BME280;41287;47.554;7.844;2022-11-11T11:35:09;99520.00;;;19.28;57.25
55418;BME280;41287;47.554;7.844;2022-11-11T11:37:52;99521.63;;;19.29;57.29
55418;BME280;41287;47.554;7.844;2022-11-11T11:40:18;99521.91;;;19.28;57.26
55418;BME280;41287;47.554;7.844;2022-11-11T11:42:43;99517.59;;;19.27;57.32
55418;BME280;41287;47.554;7.844;2022-11-11T11:45:25;99519.50;;;19.26;57.32
55418;BME280;41287;47.554;7.844;2022-11-11T11:50:49;99517.88;;;19.25;57.46
55418;BME280;41287;47.554;7.844;2022-11-11T11:53:34;99511.34;;;19.26;57.42
55418;BME280;41287;47.554;7.844;2022-11-11T12:01:58;99498.84;;;19.25;57.54
55418;BME280;41287;47.554;7.844;2022-11-11T12:04:32;99501.28;;;19.27;57.42
55418;BME280;41287;47.554;7.844;2022-11-11T12:12:38;99503.19;;;19.26;57.53
55418;BME280;41287;47.554;7.844;2022-11-11T12:15:46;99499.06;;;19.29;57.61
55418;BME280;41287;47.554;7.844;2022-11-11T12:18:28;99489.69;;;19.35;57.50
55418;BME280;41287;47.554;7.844;2022-11-11T12:21:03;99496.63;;;19.41;57.51
55418;BME280;41287;47.554;7.844;2022-11-11T12:23:37;99501.16;;;19.46;57.33
55418;BME280;41287;47.554;7.844;2022-11-11T12:26:36;99492.72;;;19.47;57.50
55418;BME280;41287;47.554;7.844;2022-11-11T12:29:28;99490.50;;;19.49;57.42
55418;BME280;41287;47.554;7.844;2022-11-11T12:35:32;99497.34;;;19.47;57.32
55418;BME280;41287;47.554;7.844;2022-11-11T12:38:22;99505.78;;;19.45;57.21
55418;BME280;41287;47.554;7.844;2022-11-11T12:46:20;99490.38;;;19.41;57.20
55418;BME280;41287;47.554;7.844;2022-11-11T13:00:00;99481.72;;;19.39;57.15
55418;BME280;41287;47.554;7.844;2022-11-11T13:02:57;99477.44;;;19.38;56.99
55418;BME280;41287;47.554;7.844;2022-11-11T13:08:24;99479.00;;;19.39;57.09
55418;BME280;41287;47.554;7.844;2022-11-11T13:11:07;99475.47;;;19.38;57.14
55418;BME280;41287;47.554;7.844;2022-11-11T13:13:53;99474.38;;;19.39;57.20
55418;BME280;41287;47.554;7.844;2022-11-11T13:16:23;99477.09;;;19.39;57.19
55418;BME280;41287;47.554;7.844;2022-11-11T13:18:54;99471.19;;;19.37;57.22
55418;BME280;41287;47.554;7.844;2022-11-11T13:24:15;99473.91;;;19.37;57.22
55418;BME280;41287;47.554;7.844;2022-11-11T13:26:42;99474.72;;;19.38;57.06
55418;BME280;41287;47.554;7.844;2022-11-11T13:29:39;99469.56;;;19.36;57.16
55418;BME280;41287;47.554;7.844;2022-11-11T13:32:13;99480.16;;;19.38;57.03
55418;BME280;41287;47.554;7.844;2022-11-11T13:34:40;99478.53;;;19.37;57.19
55418;BME280;41287;47.554;7.844;2022-11-11T13:37:15;99478.53;;;19.37;57.10
55418;BME280;41287;47.554;7.844;2022-11-11T13:39:48;99489.41;;;19.37;57.21
55418;BME280;41287;47.554;7.844;2022-11-11T13:42:21;99490.50;;;19.36;57.25
55418;BME280;41287;47.554;7.844;2022-11-11T13:44:53;99486.16;;;19.34;57.19
55418;BME280;41287;47.554;7.844;2022-11-11T13:47:26;99487.78;;;19.36;57.15
55418;BME280;41287;47.554;7.844;2022-11-11T13:50:02;99493.53;;;19.34;57.22
55418;BME280;41287;47.554;7.844;2022-11-11T13:52:51;99488.09;;;19.34;57.02
55418;BME280;41287;47.554;7.844;2022-11-11T13:55:45;99491.09;;;19.32;57.07
55418;BME280;41287;47.554;7.844;2022-11-11T13:58:40;99489.50;;;19.31;57.13
55418;BME280;41287;47.554;7.844;2022-11-11T14:01:11;99498.97;;;19.34;56.96
55418;BME280;41287;47.554;7.844;2022-11-11T14:08:57;99491.44;;;19.31;57.00
55418;BME280;41287;47.554;7.844;2022-11-11T14:13:47;99502.78;;;19.33;57.04
55418;BME280;41287;47.554;7.844;2022-11-11T14:19:12;99509.31;;;19.32;57.03
55418;BME280;41287;47.554;7.844;2022-11-11T14:24:40;99515.88;;;19.31;57.06
55418;BME280;41287;47.554;7.844;2022-11-11T14:29:36;99521.31;;;19.31;57.07
55418;BME280;41287;47.554;7.844;2022-11-11T14:35:09;99520.81;;;19.29;57.18
55418;BME280;41287;47.554;7.844;2022-11-11T14:40:27;99519.72;;;19.30;57.04
55418;BME280;41287;47.554;7.844;2022-11-11T14:42:53;99506.94;;;19.30;57.06
55418;BME280;41287;47.554;7.844;2022-11-11T14:47:58;99505.31;;;19.29;57.03
55418;BME280;41287;47.554;7.844;2022-11-11T14:52:56;99510.44;;;19.31;57.05
55418;BME280;41287;47.554;7.844;2022-11-11T14:58:14;99510.75;;;19.29;56.95
55418;BME280;41287;47.554;7.844;2022-11-11T15:01:10;99504.81;;;19.27;56.97
55418;BME280;41287;47.554;7.844;2022-11-11T15:03:43;99501.78;;;19.29;56.92
55418;BME280;41287;47.554;7.844;2022-11-11T15:06:18;99508.31;;;19.28;56.94
55418;BME280;41287;47.554;7.844;2022-11-11T15:11:27;99517.59;;;19.27;56.92
55418;BME280;41287;47.554;7.844;2022-11-11T15:16:54;99502.38;;;19.26;57.02